createdAt,value
2017-02-09T00:00:06.112Z,1022.13
2017-02-09T00:00:46.779Z,1022.12
2017-02-09T00:01:27.359Z,1022.1
2017-02-09T00:02:07.985Z,1022.09
2017-02-09T00:02:48.635Z,1022.1
2017-02-09T00:03:29.302Z,1022.1
2017-02-09T00:04:09.948Z,1022.1
2017-02-09T00:04:50.598Z,1022.08
2017-02-09T00:05:31.168Z,1022.08
2017-02-09T00:06:11.748Z,1022.04
2017-02-09T00:06:52.337Z,1022.05
2017-02-09T00:07:33.006Z,1022.04
2017-02-09T00:08:13.609Z,1022.05
2017-02-09T00:08:54.259Z,1022.07
2017-02-09T00:09:34.869Z,1022.08
2017-02-09T00:10:15.516Z,1022.05
2017-02-09T00:10:56.096Z,1022.09
2017-02-09T00:11:37.743Z,1022.08
2017-02-09T00:12:18.398Z,1022.09
2017-02-09T00:12:58.968Z,1022.12
2017-02-09T00:13:39.603Z,1022.09
2017-02-09T00:14:20.254Z,1022.12
2017-02-09T00:15:00.812Z,1022.1
2017-02-09T00:15:41.484Z,1022.07
2017-02-09T00:16:22.112Z,1022.07
2017-02-09T00:17:02.693Z,1022.1
2017-02-09T00:17:43.305Z,1022.09
2017-02-09T00:18:23.869Z,1022.08
2017-02-09T00:19:04.431Z,1022.09
2017-02-09T00:19:45.062Z,1022.08
2017-02-09T00:20:25.720Z,1022.11
2017-02-09T00:21:06.383Z,1022.09
2017-02-09T00:21:47.017Z,1022.1
2017-02-09T00:22:27.674Z,1022.1
2017-02-09T00:23:08.323Z,1022.1
2017-02-09T00:23:48.986Z,1022.11
2017-02-09T00:24:29.637Z,1022.11
2017-02-09T00:25:10.291Z,1022.12
2017-02-09T00:25:50.849Z,1022.13
2017-02-09T00:26:31.440Z,1022.13
2017-02-09T00:27:12.043Z,1022.16
2017-02-09T00:27:52.696Z,1022.16
2017-02-09T00:28:33.249Z,1022.12
2017-02-09T00:29:13.848Z,1022.12
2017-02-09T00:29:54.450Z,1022.15
2017-02-09T00:30:35.029Z,1022.15
2017-02-09T00:31:15.670Z,1022.16
2017-02-09T00:31:56.311Z,1022.14
2017-02-09T00:32:36.869Z,1022.13
2017-02-09T00:33:17.512Z,1022.13
2017-02-09T00:33:58.165Z,1022.15
2017-02-09T00:34:38.735Z,1022.16
2017-02-09T00:35:19.380Z,1022.2
2017-02-09T00:36:00.019Z,1022.18
2017-02-09T00:36:40.594Z,1022.18
2017-02-09T00:37:21.222Z,1022.18
2017-02-09T00:38:01.875Z,1022.17
2017-02-09T00:38:42.446Z,1022.21
2017-02-09T00:39:23.071Z,1022.15
2017-02-09T00:40:03.739Z,1022.18
2017-02-09T00:40:44.302Z,1022.19
2017-02-09T00:41:24.882Z,1022.22
2017-02-09T00:42:05.500Z,1022.16
2017-02-09T00:42:46.137Z,1022.23
2017-02-09T00:43:27.487Z,1022.18
2017-02-09T00:44:08.111Z,1022.15
2017-02-09T00:44:48.710Z,1022.17
2017-02-09T00:45:29.278Z,1022.19
2017-02-09T00:46:09.866Z,1022.17
2017-02-09T00:46:50.577Z,1022.16
2017-02-09T00:47:31.220Z,1022.19
2017-02-09T00:48:11.786Z,1022.13
2017-02-09T00:48:52.434Z,1022.11
2017-02-09T00:49:33.079Z,1022.17
2017-02-09T00:50:13.640Z,1022.19
2017-02-09T00:50:54.197Z,1022.19
2017-02-09T00:51:34.830Z,1022.18
2017-02-09T00:52:15.394Z,1022.19
2017-02-09T00:52:55.984Z,1022.2
2017-02-09T00:53:36.590Z,1022.19
2017-02-09T00:54:17.146Z,1022.19
2017-02-09T00:54:57.796Z,1022.21
2017-02-09T00:55:38.444Z,1022.2
2017-02-09T00:56:19.005Z,1022.21
2017-02-09T00:56:59.594Z,1022.23
2017-02-09T00:57:40.192Z,1022.23
2017-02-09T00:58:20.846Z,1022.2
2017-02-09T00:59:01.419Z,1022.22
2017-02-09T00:59:42.002Z,1022.24
2017-02-09T01:00:22.707Z,1022.24
2017-02-09T01:01:03.356Z,1022.23
2017-02-09T01:01:43.926Z,1022.24
2017-02-09T01:02:24.511Z,1022.25
2017-02-09T01:03:05.117Z,1022.25
2017-02-09T01:03:45.762Z,1022.28
2017-02-09T01:04:26.332Z,1022.28
2017-02-09T01:05:06.921Z,1022.27
2017-02-09T01:05:47.578Z,1022.28
2017-02-09T01:06:28.217Z,1022.26
2017-02-09T01:07:08.877Z,1022.31
2017-02-09T01:07:50.121Z,1022.25
2017-02-09T01:08:30.796Z,1022.27
2017-02-09T01:09:11.458Z,1022.25
2017-02-09T01:09:52.096Z,1022.32
2017-02-09T01:10:32.699Z,1022.3
2017-02-09T01:11:13.364Z,1022.31
2017-02-09T01:11:53.922Z,1022.37
2017-02-09T01:12:34.523Z,1022.35
2017-02-09T01:13:15.228Z,1022.39
2017-02-09T01:13:55.870Z,1022.35
2017-02-09T01:14:36.435Z,1022.35
2017-02-09T01:15:17.018Z,1022.39
2017-02-09T01:15:57.729Z,1022.36
2017-02-09T01:16:38.399Z,1022.37
2017-02-09T01:17:19.963Z,1022.37
2017-02-09T01:18:00.611Z,1022.36
2017-02-09T01:18:41.260Z,1022.36
2017-02-09T01:19:21.912Z,1022.36
2017-02-09T01:20:02.475Z,1022.35
2017-02-09T01:20:43.078Z,1022.38
2017-02-09T01:21:23.666Z,1022.38
2017-02-09T01:22:04.321Z,1022.37
2017-02-09T01:22:44.888Z,1022.38
2017-02-09T01:23:25.475Z,1022.41
2017-02-09T01:24:06.069Z,1022.4
2017-02-09T01:24:46.726Z,1022.42
2017-02-09T01:25:27.383Z,1022.41
2017-02-09T01:26:08.034Z,1022.41
2017-02-09T01:26:55.541Z,1022.42
2017-02-09T01:27:36.200Z,1022.42
2017-02-09T01:28:16.853Z,1022.42
2017-02-09T01:28:57.505Z,1022.43
2017-02-09T01:29:38.070Z,1022.4
2017-02-09T01:30:18.660Z,1022.39
2017-02-09T01:30:59.264Z,1022.4
2017-02-09T01:31:39.918Z,1022.39
2017-02-09T01:32:20.469Z,1022.38
2017-02-09T01:33:01.078Z,1022.39
2017-02-09T01:33:41.658Z,1022.39
2017-02-09T01:34:22.318Z,1022.39
2017-02-09T01:35:02.871Z,1022.4
2017-02-09T01:35:43.514Z,1022.4
2017-02-09T01:36:24.081Z,1022.39
2017-02-09T01:37:04.646Z,1022.41
2017-02-09T01:37:45.281Z,1022.4
2017-02-09T01:38:25.834Z,1022.43
2017-02-09T01:39:06.408Z,1022.41
2017-02-09T01:39:47.080Z,1022.4
2017-02-09T01:40:27.689Z,1022.39
2017-02-09T01:41:08.247Z,1022.38
2017-02-09T01:41:48.886Z,1022.42
2017-02-09T01:42:29.536Z,1022.42
2017-02-09T01:43:10.122Z,1022.41
2017-02-09T01:43:50.747Z,1022.39
2017-02-09T01:44:31.423Z,1022.42
2017-02-09T01:45:11.978Z,1022.41
2017-02-09T01:45:52.659Z,1022.43
2017-02-09T01:46:33.353Z,1022.45
2017-02-09T01:47:13.915Z,1022.39
2017-02-09T01:47:54.502Z,1022.38
2017-02-09T01:48:35.150Z,1022.42
2017-02-09T01:49:15.788Z,1022.35
2017-02-09T01:49:56.450Z,1022.36
2017-02-09T01:50:37.024Z,1022.37
2017-02-09T01:51:17.610Z,1022.38
2017-02-09T01:51:58.276Z,1022.38
2017-02-09T01:52:38.826Z,1022.4
2017-02-09T01:53:19.479Z,1022.42
2017-02-09T01:54:00.131Z,1022.39
2017-02-09T01:54:40.682Z,1022.44
2017-02-09T01:55:21.334Z,1022.45
2017-02-09T01:56:01.987Z,1022.47
2017-02-09T01:56:42.638Z,1022.42
2017-02-09T01:57:23.293Z,1022.4
2017-02-09T01:58:03.943Z,1022.43
2017-02-09T01:58:44.595Z,1022.45
2017-02-09T01:59:25.177Z,1022.44
2017-02-09T02:00:05.744Z,1022.43
2017-02-09T02:00:46.445Z,1022.42
2017-02-09T02:01:27.108Z,1022.46
2017-02-09T02:02:07.761Z,1022.42
2017-02-09T02:02:48.312Z,1022.43
2017-02-09T02:03:28.912Z,1022.42
2017-02-09T02:04:09.523Z,1022.41
2017-02-09T02:04:50.167Z,1022.43
2017-02-09T02:05:30.788Z,1022.42
2017-02-09T02:06:11.472Z,1022.47
2017-02-09T02:06:53.147Z,1022.41
2017-02-09T02:07:33.730Z,1022.44
2017-02-09T02:08:14.360Z,1022.43
2017-02-09T02:08:55.013Z,1022.46
2017-02-09T02:09:35.579Z,1022.45
2017-02-09T02:10:16.207Z,1022.44
2017-02-09T02:10:56.861Z,1022.43
2017-02-09T02:11:37.422Z,1022.41
2017-02-09T02:12:18.062Z,1022.42
2017-02-09T02:12:58.716Z,1022.42
2017-02-09T02:13:39.289Z,1022.41
2017-02-09T02:14:19.921Z,1022.38
2017-02-09T02:15:00.573Z,1022.38
2017-02-09T02:15:41.225Z,1022.39
2017-02-09T02:16:21.876Z,1022.37
2017-02-09T02:17:02.532Z,1022.36
2017-02-09T02:17:43.185Z,1022.41
2017-02-09T02:18:23.829Z,1022.39
2017-02-09T02:19:04.591Z,1022.38
2017-02-09T02:19:45.244Z,1022.4
2017-02-09T02:20:25.818Z,1022.42
2017-02-09T02:21:06.448Z,1022.41
2017-02-09T02:21:47.101Z,1022.41
2017-02-09T02:22:27.649Z,1022.37
2017-02-09T02:23:08.305Z,1022.39
2017-02-09T02:23:48.959Z,1022.41
2017-02-09T02:24:29.546Z,1022.42
2017-02-09T02:25:10.263Z,1022.42
2017-02-09T02:25:51.016Z,1022.42
2017-02-09T02:26:31.782Z,1022.45
2017-02-09T02:27:12.441Z,1022.44
2017-02-09T02:27:53.196Z,1022.45
2017-02-09T02:28:33.934Z,1022.46
2017-02-09T02:29:14.690Z,1022.49
2017-02-09T02:29:55.448Z,1022.45
2017-02-09T02:30:36.201Z,1022.51
2017-02-09T02:31:16.969Z,1022.49
2017-02-09T02:31:57.713Z,1022.5
2017-02-09T02:32:38.384Z,1022.52
2017-02-09T02:33:19.122Z,1022.46
2017-02-09T02:33:59.874Z,1022.48
2017-02-09T02:34:40.527Z,1022.49
2017-02-09T02:35:21.284Z,1022.5
2017-02-09T02:36:01.846Z,1022.51
2017-02-09T02:36:42.589Z,1022.49
2017-02-09T02:37:23.243Z,1022.46
2017-02-09T02:38:03.820Z,1022.46
2017-02-09T02:38:44.444Z,1022.48
2017-02-09T02:39:25.101Z,1022.48
2017-02-09T02:40:05.674Z,1022.42
2017-02-09T02:40:46.299Z,1022.45
2017-02-09T02:41:26.956Z,1022.49
2017-02-09T02:42:07.616Z,1022.46
2017-02-09T02:42:48.260Z,1022.48
2017-02-09T02:43:28.913Z,1022.47
2017-02-09T02:44:09.566Z,1022.5
2017-02-09T02:44:50.219Z,1022.51
2017-02-09T02:45:30.882Z,1022.49
2017-02-09T02:46:11.535Z,1022.52
2017-02-09T02:46:52.187Z,1022.47
2017-02-09T02:47:32.841Z,1022.5
2017-02-09T02:48:13.484Z,1022.48
2017-02-09T02:48:54.147Z,1022.49
2017-02-09T02:49:34.797Z,1022.49
2017-02-09T02:50:15.442Z,1022.47
2017-02-09T02:50:56.101Z,1022.43
2017-02-09T02:51:36.757Z,1022.48
2017-02-09T02:52:17.410Z,1022.45
2017-02-09T02:52:58.071Z,1022.5
2017-02-09T02:53:38.716Z,1022.46
2017-02-09T02:54:19.369Z,1022.44
2017-02-09T02:54:59.924Z,1022.46
2017-02-09T02:55:40.526Z,1022.45
2017-02-09T02:56:21.109Z,1022.45
2017-02-09T02:57:01.772Z,1022.49
2017-02-09T02:57:42.346Z,1022.47
2017-02-09T02:58:22.938Z,1022.48
2017-02-09T02:59:03.517Z,1022.46
2017-02-09T02:59:44.173Z,1022.44
2017-02-09T03:00:24.825Z,1022.45
2017-02-09T03:01:05.485Z,1022.48
2017-02-09T03:01:46.144Z,1022.45
2017-02-09T03:02:26.795Z,1022.43
2017-02-09T03:03:07.448Z,1022.47
2017-02-09T03:03:48.093Z,1022.46
2017-02-09T03:04:28.751Z,1022.51
2017-02-09T03:05:09.399Z,1022.47
2017-02-09T03:05:50.063Z,1022.45
2017-02-09T03:06:30.702Z,1022.47
2017-02-09T03:07:11.360Z,1022.46
2017-02-09T03:07:52.020Z,1022.5
2017-02-09T03:08:32.669Z,1022.48
2017-02-09T03:09:13.325Z,1022.52
2017-02-09T03:09:53.980Z,1022.48
2017-02-09T03:10:34.628Z,1022.49
2017-02-09T03:11:15.280Z,1022.47
2017-02-09T03:11:55.931Z,1022.47
2017-02-09T03:12:36.589Z,1022.44
2017-02-09T03:13:17.239Z,1022.45
2017-02-09T03:13:57.891Z,1022.45
2017-02-09T03:14:38.549Z,1022.4
2017-02-09T03:15:19.200Z,1022.43
2017-02-09T03:15:59.845Z,1022.41
2017-02-09T03:16:40.402Z,1022.41
2017-02-09T03:17:21.053Z,1022.44
2017-02-09T03:18:01.655Z,1022.46
2017-02-09T03:18:42.316Z,1022.42
2017-02-09T03:19:22.972Z,1022.44
2017-02-09T03:20:03.623Z,1022.41
2017-02-09T03:20:44.220Z,1022.47
2017-02-09T03:21:24.790Z,1022.45
2017-02-09T03:22:05.425Z,1022.47
2017-02-09T03:22:46.080Z,1022.49
2017-02-09T03:23:26.666Z,1022.45
2017-02-09T03:24:07.277Z,1022.44
2017-02-09T03:24:47.933Z,1022.49
2017-02-09T03:25:28.582Z,1022.46
2017-02-09T03:26:09.239Z,1022.48
2017-02-09T03:26:49.888Z,1022.51
2017-02-09T03:27:30.544Z,1022.45
2017-02-09T03:28:11.198Z,1022.45
2017-02-09T03:28:51.846Z,1022.51
2017-02-09T03:29:32.500Z,1022.48
2017-02-09T03:30:13.064Z,1022.42
2017-02-09T03:30:53.662Z,1022.49
2017-02-09T03:31:34.254Z,1022.45
2017-02-09T03:32:14.912Z,1022.44
2017-02-09T03:32:55.472Z,1022.44
2017-02-09T03:33:36.070Z,1022.44
2017-02-09T03:34:16.653Z,1022.44
2017-02-09T03:34:57.216Z,1022.47
2017-02-09T03:35:37.767Z,1022.46
2017-02-09T03:36:18.380Z,1022.47
2017-02-09T03:36:58.961Z,1022.46
2017-02-09T03:37:39.537Z,1022.49
2017-02-09T03:38:20.138Z,1022.49
2017-02-09T03:39:00.701Z,1022.51
2017-02-09T03:39:41.265Z,1022.48
2017-02-09T03:40:21.825Z,1022.51
2017-02-09T03:41:02.395Z,1022.49
2017-02-09T03:41:42.965Z,1022.52
2017-02-09T03:42:23.533Z,1022.51
2017-02-09T03:43:04.106Z,1022.52
2017-02-09T03:43:44.657Z,1022.47
2017-02-09T03:44:25.223Z,1022.48
2017-02-09T03:45:05.807Z,1022.48
2017-02-09T03:45:46.361Z,1022.52
2017-02-09T03:46:26.914Z,1022.54
2017-02-09T03:47:07.466Z,1022.52
2017-02-09T03:47:48.055Z,1022.56
2017-02-09T03:48:28.616Z,1022.56
2017-02-09T03:49:09.190Z,1022.54
2017-02-09T03:49:49.768Z,1022.53
2017-02-09T03:50:30.338Z,1022.57
2017-02-09T03:51:10.909Z,1022.6
2017-02-09T03:51:51.462Z,1022.58
2017-02-09T03:52:32.018Z,1022.57
2017-02-09T03:53:12.605Z,1022.57
2017-02-09T03:53:53.198Z,1022.59
2017-02-09T03:54:33.753Z,1022.58
2017-02-09T03:55:14.318Z,1022.57
2017-02-09T03:55:54.899Z,1022.61
2017-02-09T03:56:35.484Z,1022.56
2017-02-09T03:57:16.047Z,1022.64
2017-02-09T03:57:57.598Z,1022.57
2017-02-09T03:58:38.174Z,1022.6
2017-02-09T03:59:18.739Z,1022.6
2017-02-09T03:59:59.297Z,1022.61
2017-02-09T04:00:39.865Z,1022.58
2017-02-09T04:01:20.443Z,1022.58
2017-02-09T04:02:01.005Z,1022.63
2017-02-09T04:02:41.576Z,1022.64
2017-02-09T04:03:22.149Z,1022.65
2017-02-09T04:04:02.703Z,1022.6
2017-02-09T04:04:43.254Z,1022.62
2017-02-09T04:05:23.824Z,1022.59
2017-02-09T04:06:04.383Z,1022.62
2017-02-09T04:06:44.970Z,1022.6
2017-02-09T04:07:25.549Z,1022.61
2017-02-09T04:08:06.114Z,1022.64
2017-02-09T04:08:46.684Z,1022.6
2017-02-09T04:09:27.268Z,1022.68
2017-02-09T04:10:07.828Z,1022.59
2017-02-09T04:10:48.387Z,1022.62
2017-02-09T04:11:28.953Z,1022.65
2017-02-09T04:12:09.529Z,1022.68
2017-02-09T04:12:50.113Z,1022.67
2017-02-09T04:13:30.713Z,1022.64
2017-02-09T04:14:11.269Z,1022.63
2017-02-09T04:14:51.848Z,1022.71
2017-02-09T04:15:32.427Z,1022.68
2017-02-09T04:16:13.894Z,1022.68
2017-02-09T04:16:54.469Z,1022.72
2017-02-09T04:17:35.039Z,1022.68
2017-02-09T04:18:15.597Z,1022.71
2017-02-09T04:18:56.175Z,1022.72
2017-02-09T04:19:36.751Z,1022.7
2017-02-09T04:20:17.326Z,1022.69
2017-02-09T04:20:57.889Z,1022.66
2017-02-09T04:21:38.481Z,1022.68
2017-02-09T04:22:19.066Z,1022.66
2017-02-09T04:22:59.646Z,1022.63
2017-02-09T04:23:40.219Z,1022.64
2017-02-09T04:24:21.803Z,1022.64
2017-02-09T04:25:02.368Z,1022.66
2017-02-09T04:25:42.954Z,1022.63
2017-02-09T04:26:23.520Z,1022.65
2017-02-09T04:27:04.097Z,1022.63
2017-02-09T04:27:44.664Z,1022.61
2017-02-09T04:28:25.234Z,1022.64
2017-02-09T04:29:06.791Z,1022.64
2017-02-09T04:29:47.383Z,1022.65
2017-02-09T04:30:27.951Z,1022.69
2017-02-09T04:31:09.380Z,1022.66
2017-02-09T04:31:49.947Z,1022.67
2017-02-09T04:32:30.511Z,1022.67
2017-02-09T04:33:11.122Z,1022.7
2017-02-09T04:33:51.702Z,1022.68
2017-02-09T04:34:32.289Z,1022.67
2017-02-09T04:35:12.874Z,1022.68
2017-02-09T04:35:53.455Z,1022.67
2017-02-09T04:36:34.033Z,1022.7
2017-02-09T04:37:14.582Z,1022.67
2017-02-09T04:37:55.139Z,1022.69
2017-02-09T04:38:35.706Z,1022.73
2017-02-09T04:39:16.276Z,1022.7
2017-02-09T04:39:56.854Z,1022.78
2017-02-09T04:40:37.425Z,1022.74
2017-02-09T04:41:17.990Z,1022.79
2017-02-09T04:41:58.567Z,1022.74
2017-02-09T04:42:39.154Z,1022.81
2017-02-09T04:43:19.745Z,1022.76
2017-02-09T04:44:00.312Z,1022.75
2017-02-09T04:44:40.866Z,1022.78
2017-02-09T04:45:21.437Z,1022.77
2017-02-09T04:46:02.004Z,1022.77
2017-02-09T04:46:42.598Z,1022.7
2017-02-09T04:47:23.146Z,1022.78
2017-02-09T04:48:03.711Z,1022.74
2017-02-09T04:48:44.291Z,1022.74
2017-02-09T04:49:24.859Z,1022.78
2017-02-09T04:50:05.424Z,1022.76
2017-02-09T04:50:45.992Z,1022.8
2017-02-09T04:51:26.560Z,1022.79
2017-02-09T04:52:07.134Z,1022.79
2017-02-09T04:52:47.713Z,1022.79
2017-02-09T04:53:28.279Z,1022.81
2017-02-09T04:54:08.856Z,1022.77
2017-02-09T04:54:49.426Z,1022.8
2017-02-09T04:55:29.983Z,1022.86
2017-02-09T04:56:10.578Z,1022.84
2017-02-09T04:56:51.160Z,1022.82
2017-02-09T04:57:31.755Z,1022.8
2017-02-09T04:58:12.333Z,1022.76
2017-02-09T04:58:52.912Z,1022.79
2017-02-09T04:59:33.470Z,1022.81
2017-02-09T05:00:14.051Z,1022.8
2017-02-09T05:00:54.640Z,1022.84
2017-02-09T05:01:35.217Z,1022.84
2017-02-09T05:02:15.789Z,1022.82
2017-02-09T05:02:56.367Z,1022.82
2017-02-09T05:03:36.932Z,1022.84
2017-02-09T05:04:17.494Z,1022.84
2017-02-09T05:04:58.066Z,1022.8
2017-02-09T05:05:38.627Z,1022.85
2017-02-09T05:06:19.202Z,1022.79
2017-02-09T05:06:59.783Z,1022.81
2017-02-09T05:07:40.347Z,1022.84
2017-02-09T05:08:20.927Z,1022.83
2017-02-09T05:09:01.498Z,1022.84
2017-02-09T05:09:42.069Z,1022.87
2017-02-09T05:10:22.640Z,1022.85
2017-02-09T05:11:03.205Z,1022.88
2017-02-09T05:11:43.781Z,1022.87
2017-02-09T05:12:24.344Z,1022.89
2017-02-09T05:13:04.913Z,1022.87
2017-02-09T05:13:45.482Z,1022.87
2017-02-09T05:14:26.047Z,1022.82
2017-02-09T05:15:06.616Z,1022.83
2017-02-09T05:15:47.187Z,1022.82
2017-02-09T05:16:27.747Z,1022.8
2017-02-09T05:17:08.337Z,1022.78
2017-02-09T05:17:48.968Z,1022.83
2017-02-09T05:18:29.545Z,1022.83
2017-02-09T05:19:10.131Z,1022.78
2017-02-09T05:19:50.680Z,1022.82
2017-02-09T05:20:31.269Z,1022.8
2017-02-09T05:21:11.844Z,1022.84
2017-02-09T05:21:52.432Z,1022.8
2017-02-09T05:22:33.018Z,1022.85
2017-02-09T05:23:13.580Z,1022.87
2017-02-09T05:23:54.183Z,1022.85
2017-02-09T05:24:34.754Z,1022.84
2017-02-09T05:25:15.366Z,1022.87
2017-02-09T05:25:55.905Z,1022.86
2017-02-09T05:26:36.488Z,1022.85
2017-02-09T05:27:17.060Z,1022.85
2017-02-09T05:27:57.647Z,1022.86
2017-02-09T05:28:38.224Z,1022.84
2017-02-09T05:29:18.804Z,1022.86
2017-02-09T05:29:59.364Z,1022.82
2017-02-09T05:30:39.937Z,1022.89
2017-02-09T05:31:20.522Z,1022.82
2017-02-09T05:32:01.098Z,1022.83
2017-02-09T05:32:41.666Z,1022.83
2017-02-09T05:33:22.237Z,1022.81
2017-02-09T05:34:02.801Z,1022.86
2017-02-09T05:34:43.379Z,1022.82
2017-02-09T05:35:23.966Z,1022.8
2017-02-09T05:36:04.553Z,1022.83
2017-02-09T05:36:45.083Z,1022.85
2017-02-09T05:37:25.663Z,1022.8
2017-02-09T05:38:06.238Z,1022.86
2017-02-09T05:38:46.808Z,1022.79
2017-02-09T05:39:27.377Z,1022.83
2017-02-09T05:40:07.946Z,1022.81
2017-02-09T05:40:48.499Z,1022.79
2017-02-09T05:41:29.051Z,1022.79
2017-02-09T05:42:09.610Z,1022.82
2017-02-09T05:42:50.177Z,1022.78
2017-02-09T05:43:30.768Z,1022.79
2017-02-09T05:44:11.331Z,1022.78
2017-02-09T05:44:51.907Z,1022.76
2017-02-09T05:45:32.482Z,1022.84
2017-02-09T05:46:13.064Z,1022.78
2017-02-09T05:46:53.631Z,1022.74
2017-02-09T05:47:34.199Z,1022.78
2017-02-09T05:48:14.773Z,1022.76
2017-02-09T05:48:57.338Z,1022.79
2017-02-09T05:49:37.912Z,1022.78
2017-02-09T05:50:18.520Z,1022.82
2017-02-09T05:50:59.085Z,1022.78
2017-02-09T05:51:39.657Z,1022.8
2017-02-09T05:52:20.217Z,1022.84
2017-02-09T05:53:01.796Z,1022.79
2017-02-09T05:53:43.364Z,1022.83
2017-02-09T05:54:23.934Z,1022.82
2017-02-09T05:55:04.506Z,1022.8
2017-02-09T05:55:49.049Z,1022.73
2017-02-09T05:56:29.630Z,1022.77
2017-02-09T05:57:10.205Z,1022.82
2017-02-09T05:57:50.763Z,1022.8
2017-02-09T05:58:31.339Z,1022.82
2017-02-09T05:59:11.914Z,1022.77
2017-02-09T05:59:52.491Z,1022.8
2017-02-09T06:00:33.058Z,1022.81
2017-02-09T06:01:13.633Z,1022.83
2017-02-09T06:01:54.203Z,1022.84
2017-02-09T06:02:34.772Z,1022.83
2017-02-09T06:03:15.348Z,1022.82
2017-02-09T06:03:55.914Z,1022.85
2017-02-09T06:04:36.537Z,1022.88
2017-02-09T06:05:17.104Z,1022.83
2017-02-09T06:05:57.691Z,1022.83
2017-02-09T06:06:38.255Z,1022.82
2017-02-09T06:07:18.831Z,1022.79
2017-02-09T06:07:59.403Z,1022.86
2017-02-09T06:08:39.973Z,1022.88
2017-02-09T06:09:20.525Z,1022.88
2017-02-09T06:10:01.147Z,1022.85
2017-02-09T06:10:41.764Z,1022.82
2017-02-09T06:11:22.337Z,1022.87
2017-02-09T06:12:02.900Z,1022.85
2017-02-09T06:12:43.486Z,1022.84
2017-02-09T06:13:24.053Z,1022.85
2017-02-09T06:14:04.629Z,1022.89
2017-02-09T06:14:45.203Z,1022.86
2017-02-09T06:15:25.782Z,1022.88
2017-02-09T06:16:06.359Z,1022.88
2017-02-09T06:16:46.944Z,1022.86
2017-02-09T06:17:27.503Z,1022.9
2017-02-09T06:18:08.071Z,1022.91
2017-02-09T06:18:48.646Z,1022.89
2017-02-09T06:19:29.214Z,1022.89
2017-02-09T06:20:09.823Z,1022.91
2017-02-09T06:20:50.502Z,1022.9
2017-02-09T06:21:31.107Z,1022.88
2017-02-09T06:22:11.681Z,1022.89
2017-02-09T06:22:52.291Z,1022.94
2017-02-09T06:23:32.886Z,1022.91
2017-02-09T06:24:13.437Z,1022.94
2017-02-09T06:24:54.010Z,1022.95
2017-02-09T06:25:34.584Z,1022.95
2017-02-09T06:26:15.160Z,1022.97
2017-02-09T06:26:55.730Z,1022.93
2017-02-09T06:27:36.287Z,1022.96
2017-02-09T06:28:16.858Z,1022.99
2017-02-09T06:28:57.440Z,1022.97
2017-02-09T06:29:38.011Z,1022.95
2017-02-09T06:30:18.593Z,1022.99
2017-02-09T06:30:59.157Z,1022.99
2017-02-09T06:31:39.725Z,1022.94
2017-02-09T06:32:20.300Z,1022.96
2017-02-09T06:33:00.876Z,1022.97
2017-02-09T06:33:41.477Z,1022.92
2017-02-09T06:34:22.053Z,1022.94
2017-02-09T06:35:02.616Z,1022.96
2017-02-09T06:35:43.231Z,1022.91
2017-02-09T06:36:23.882Z,1022.94
2017-02-09T06:37:04.447Z,1022.9
2017-02-09T06:37:45.026Z,1022.92
2017-02-09T06:38:25.610Z,1022.92
2017-02-09T06:39:06.186Z,1022.92
2017-02-09T06:39:46.729Z,1022.96
2017-02-09T06:40:27.305Z,1022.94
2017-02-09T06:41:07.903Z,1022.97
2017-02-09T06:41:48.478Z,1022.98
2017-02-09T06:42:29.055Z,1022.99
2017-02-09T06:43:09.640Z,1023.01
2017-02-09T06:43:50.215Z,1022.97
2017-02-09T06:44:30.790Z,1023.01
2017-02-09T06:45:11.357Z,1022.97
2017-02-09T06:45:51.929Z,1022.97
2017-02-09T06:46:32.537Z,1022.99
2017-02-09T06:47:13.116Z,1022.97
2017-02-09T06:47:53.699Z,1022.99
2017-02-09T06:48:34.262Z,1022.97
2017-02-09T06:49:14.828Z,1022.99
2017-02-09T06:49:55.400Z,1022.96
2017-02-09T06:50:35.970Z,1022.93
2017-02-09T06:51:16.598Z,1022.94
2017-02-09T06:51:57.132Z,1022.95
2017-02-09T06:52:37.719Z,1022.98
2017-02-09T06:53:18.302Z,1022.97
2017-02-09T06:53:58.867Z,1023
2017-02-09T06:54:39.464Z,1023.01
2017-02-09T06:55:20.144Z,1022.99
2017-02-09T06:56:00.715Z,1022.97
2017-02-09T06:56:41.350Z,1022.99
2017-02-09T06:57:21.919Z,1022.99
2017-02-09T06:58:02.512Z,1022.96
2017-02-09T06:58:43.109Z,1022.97
2017-02-09T06:59:23.754Z,1023
2017-02-09T07:00:04.322Z,1023.01
2017-02-09T07:00:44.942Z,1023.02
2017-02-09T07:01:25.612Z,1023.02
2017-02-09T07:02:06.266Z,1023.04
2017-02-09T07:02:46.815Z,1023
2017-02-09T07:03:27.422Z,1023.01
2017-02-09T07:04:08.124Z,1023
2017-02-09T07:04:48.777Z,1023
2017-02-09T07:05:29.371Z,1023
2017-02-09T07:06:10.023Z,1022.99
2017-02-09T07:06:50.681Z,1023.01
2017-02-09T07:07:31.338Z,1023.02
2017-02-09T07:08:11.982Z,1023.01
2017-02-09T07:08:52.650Z,1022.99
2017-02-09T07:09:33.288Z,1023.02
2017-02-09T07:10:13.970Z,1023.04
2017-02-09T07:10:54.650Z,1023.04
2017-02-09T07:11:35.303Z,1023.05
2017-02-09T07:12:15.956Z,1023.05
2017-02-09T07:12:56.602Z,1023.05
2017-02-09T07:13:37.262Z,1022.99
2017-02-09T07:14:17.912Z,1023.05
2017-02-09T07:14:58.567Z,1023.08
2017-02-09T07:15:39.139Z,1023.04
2017-02-09T07:16:19.776Z,1023.07
2017-02-09T07:17:00.423Z,1023.07
2017-02-09T07:17:40.996Z,1023.09
2017-02-09T07:18:21.621Z,1023.06
2017-02-09T07:19:02.279Z,1023.09
2017-02-09T07:19:42.851Z,1023.1
2017-02-09T07:20:23.483Z,1023.11
2017-02-09T07:21:04.137Z,1023.13
2017-02-09T07:21:44.791Z,1023.14
2017-02-09T07:22:25.436Z,1023.14
2017-02-09T07:23:06.088Z,1023.11
2017-02-09T07:23:46.740Z,1023.12
2017-02-09T07:24:27.409Z,1023.1
2017-02-09T07:25:08.054Z,1023.15
2017-02-09T07:25:48.614Z,1023.11
2017-02-09T07:26:29.208Z,1023.09
2017-02-09T07:27:09.791Z,1023.12
2017-02-09T07:27:50.462Z,1023.14
2017-02-09T07:28:31.032Z,1023.11
2017-02-09T07:29:11.748Z,1023.11
2017-02-09T07:29:52.453Z,1023.11
2017-02-09T07:30:33.172Z,1023.12
2017-02-09T07:31:13.768Z,1023.12
2017-02-09T07:31:54.391Z,1023.08
2017-02-09T07:32:35.030Z,1023.12
2017-02-09T07:33:15.678Z,1023.08
2017-02-09T07:33:56.336Z,1023.11
2017-02-09T07:34:37.098Z,1023.1
2017-02-09T07:35:17.943Z,1023.1
2017-02-09T07:36:03.722Z,1023.11
2017-02-09T07:36:44.275Z,1023.13
2017-02-09T07:37:24.923Z,1023.12
2017-02-09T07:38:05.781Z,1023.14
2017-02-09T07:38:46.442Z,1023.13
2017-02-09T07:39:27.091Z,1023.1
2017-02-09T07:40:07.735Z,1023.14
2017-02-09T07:40:48.498Z,1023.09
2017-02-09T07:41:29.153Z,1023.09
2017-02-09T07:42:09.807Z,1023.08
2017-02-09T07:42:50.668Z,1023.12
2017-02-09T07:43:31.416Z,1023.1
2017-02-09T07:44:12.070Z,1023.1
2017-02-09T07:44:52.830Z,1023.06
2017-02-09T07:45:33.392Z,1023.07
2017-02-09T07:46:14.083Z,1023.09
2017-02-09T07:46:54.679Z,1023.11
2017-02-09T07:47:35.338Z,1023.1
2017-02-09T07:48:15.901Z,1023.17
2017-02-09T07:48:56.489Z,1023.16
2017-02-09T07:49:37.208Z,1023.17
2017-02-09T07:50:17.966Z,1023.19
2017-02-09T07:50:58.532Z,1023.19
2017-02-09T07:51:39.205Z,1023.15
2017-02-09T07:52:20.124Z,1023.18
2017-02-09T07:53:00.859Z,1023.2
2017-02-09T07:53:41.677Z,1023.16
2017-02-09T07:54:22.584Z,1023.16
2017-02-09T07:55:03.183Z,1023.18
2017-02-09T07:55:43.835Z,1023.17
2017-02-09T07:56:24.455Z,1023.2
2017-02-09T07:57:05.232Z,1023.21
2017-02-09T07:57:45.935Z,1023.23
2017-02-09T07:58:26.732Z,1023.25
2017-02-09T07:59:07.388Z,1023.28
2017-02-09T07:59:48.060Z,1023.33
2017-02-09T08:00:28.644Z,1023.27
2017-02-09T08:01:09.342Z,1023.33
2017-02-09T08:01:49.964Z,1023.28
2017-02-09T08:02:30.538Z,1023.32
2017-02-09T08:03:11.222Z,1023.28
2017-02-09T08:03:51.832Z,1023.32
2017-02-09T08:04:32.479Z,1023.32
2017-02-09T08:05:13.047Z,1023.32
2017-02-09T08:05:53.628Z,1023.31
2017-02-09T08:06:34.335Z,1023.34
2017-02-09T08:07:14.989Z,1023.31
2017-02-09T08:07:55.555Z,1023.31
2017-02-09T08:08:36.152Z,1023.32
2017-02-09T08:09:16.746Z,1023.3
2017-02-09T08:09:57.391Z,1023.26
2017-02-09T08:10:37.941Z,1023.32
2017-02-09T08:11:18.533Z,1023.31
2017-02-09T08:11:59.260Z,1023.32
2017-02-09T08:12:39.907Z,1023.33
2017-02-09T08:13:20.558Z,1023.31